Time;durP1;ratioP1;P1;durP2;ratioP2;P2;SDS_P1;SDS_P2;PMS_P1;PMS_P2;Temp;Humidity;BMP_temperature;BMP_pressure;BME280_temperature;BME280_humidity;BME280_pressure;Samples;Min_cycle;Max_cycle;Signal;HPM_P1;HPM_P2
2023/11/23 00:00:44;;;;;;;12.35;11.07;;;2.00;1.00;;;;;;5076419;28;20290;-80
2023/11/23 00:03:14;;;;;;;12.05;10.70;;;2.00;1.00;;;;;;5068958;28;20233;-81
2023/11/23 00:05:41;;;;;;;12.85;11.25;;;2.00;1.00;;;;;;5078185;28;20243;-80
2023/11/23 00:08:08;;;;;;;14.13;12.38;;;2.10;1.00;;;;;;5064915;28;20994;-80
2023/11/23 00:10:35;;;;;;;14.68;12.70;;;2.10;1.00;;;;;;5077748;28;20244;-80
2023/11/23 00:13:02;;;;;;;14.80;11.48;;;2.20;1.00;;;;;;5079797;28;20241;-80
2023/11/23 00:15:29;;;;;;;12.73;11.48;;;2.20;1.00;;;;;;5074301;28;20248;-73
2023/11/23 00:17:57;;;;;;;13.48;10.57;;;2.20;1.00;;;;;;5073676;28;20283;-79
2023/11/23 00:20:25;;;;;;;12.93;11.73;;;2.20;1.00;;;;;;5071924;28;20243;-76
2023/11/23 00:22:52;;;;;;;12.10;10.98;;;2.20;1.00;;;;;;5061344;28;20251;-75
2023/11/23 00:25:20;;;;;;;11.55;10.35;;;2.30;1.00;;;;;;5060326;28;20229;-81
2023/11/23 00:27:47;;;;;;;10.75;9.65;;;2.30;1.00;;;;;;5065089;28;20237;-76
2023/11/23 00:30:14;;;;;;;12.45;9.65;;;2.30;1.00;;;;;;5061349;28;20236;-77
2023/11/23 00:32:42;;;;;;;12.38;9.75;;;2.40;1.00;;;;;;5059961;28;20241;-80
2023/11/23 00:35:12;;;;;;;12.25;10.73;;;2.40;1.00;;;;;;5064484;28;20243;-76
2023/11/23 00:37:41;;;;;;;10.70;9.57;;;2.40;1.00;;;;;;5075479;28;20236;-81
2023/11/23 00:40:10;;;;;;;11.68;10.57;;;2.40;1.00;;;;;;5072705;28;20606;-77
2023/11/23 00:42:37;;;;;;;11.35;9.73;;;2.40;1.00;;;;;;5057132;28;20237;-74
2023/11/23 00:45:07;;;;;;;9.63;8.73;;;2.40;1.00;;;;;;5059140;28;20326;-74
2023/11/23 00:47:34;;;;;;;9.93;8.82;;;2.40;1.00;;;;;;5067182;28;20247;-77
2023/11/23 00:50:02;;;;;;;10.75;9.68;;;2.50;1.00;;;;;;5063601;28;21050;-73
2023/11/23 00:52:29;;;;;;;12.35;9.82;;;2.50;1.00;;;;;;5056161;28;20236;-73
2023/11/23 00:54:57;;;;;;;9.85;8.85;;;2.50;1.00;;;;;;5066961;28;20714;-74
2023/11/23 00:57:25;;;;;;;9.85;8.95;;;2.60;1.00;;;;;;5061881;28;20288;-74
2023/11/23 00:59:52;;;;;;;10.65;9.45;;;2.60;1.00;;;;;;5054554;28;20921;-74
2023/11/23 01:02:20;;;;;;;10.50;9.40;;;2.60;1.00;;;;;;5049959;28;20226;-74
2023/11/23 01:04:48;;;;;;;9.38;8.32;;;2.60;1.00;;;;;;5060967;28;20229;-74
2023/11/23 01:07:17;;;;;;;10.75;9.68;;;2.70;1.00;;;;;;5069276;28;20282;-73
2023/11/23 01:09:44;;;;;;;10.88;9.05;;;2.80;1.00;;;;;;5067117;28;20233;-76
2023/11/23 01:12:12;;;;;;;10.13;8.75;;;2.80;1.00;;;;;;5068980;28;20350;-76
2023/11/23 01:14:39;;;;;;;9.23;8.40;;;2.80;1.00;;;;;;5065347;28;20273;-75
2023/11/23 01:17:06;;;;;;;10.13;8.45;;;2.90;1.00;;;;;;5054559;28;20264;-74
2023/11/23 01:19:33;;;;;;;10.98;8.35;;;2.90;1.00;;;;;;5056802;28;21117;-74
2023/11/23 01:22:00;;;;;;;8.93;8.02;;;2.90;1.00;;;;;;5059021;28;20244;-76
2023/11/23 01:24:29;;;;;;;9.00;7.72;;;3.00;1.00;;;;;;5063691;28;20311;-75
2023/11/23 01:26:56;;;;;;;9.43;8.10;;;3.00;1.00;;;;;;5050461;28;20911;-76
2023/11/23 01:29:28;;;;;;;8.68;7.78;;;2.90;1.00;;;;;;5060811;28;20241;-74
2023/11/23 01:31:55;;;;;;;7.07;6.38;;;3.00;1.00;;;;;;5055821;28;20716;-73
2023/11/23 01:34:22;;;;;;;7.93;7.20;;;3.10;1.00;;;;;;5065916;28;20732;-76
2023/11/23 01:36:49;;;;;;;8.38;7.40;;;3.10;1.00;;;;;;5060159;28;20237;-74
2023/11/23 01:39:17;;;;;;;8.45;7.65;;;3.10;1.00;;;;;;5070697;28;20267;-76
2023/11/23 01:41:44;;;;;;;7.53;6.82;;;3.20;1.00;;;;;;5070968;28;20240;-74
2023/11/23 01:44:11;;;;;;;7.70;6.90;;;3.20;1.00;;;;;;5059626;28;20343;-75
2023/11/23 01:46:40;;;;;;;7.72;6.85;;;3.30;1.00;;;;;;5051221;28;20269;-74
2023/11/23 01:49:09;;;;;;;8.00;7.10;;;3.30;1.00;;;;;;5055144;28;20737;-73
2023/11/23 01:51:36;;;;;;;8.57;7.78;;;3.40;1.00;;;;;;5059465;28;20240;-81
2023/11/23 01:54:02;;;;;;;8.05;6.93;;;3.40;1.00;;;;;;5054184;28;20252;-81
2023/11/23 01:56:30;;;;;;;8.30;6.15;;;3.40;1.00;;;;;;5053911;28;20280;-81
2023/11/23 01:58:59;;;;;;;10.98;6.80;;;3.50;1.00;;;;;;5060344;28;20268;-80
2023/11/23 02:01:29;;;;;;;7.15;6.45;;;3.50;1.00;;;;;;5069433;28;20245;-74
2023/11/23 02:03:57;;;;;;;8.65;5.90;;;3.50;1.00;;;;;;5067148;28;20244;-77
2023/11/23 02:06:25;;;;;;;7.18;6.47;;;3.50;1.00;;;;;;5066603;28;20245;-80
2023/11/23 02:08:53;;;;;;;6.15;5.60;;;3.50;1.00;;;;;;5066644;28;20265;-81
2023/11/23 02:11:20;;;;;;;6.57;5.95;;;3.50;1.00;;;;;;5064707;28;20312;-80
2023/11/23 02:13:47;;;;;;;6.28;5.60;;;3.50;1.00;;;;;;5060740;27;20233;-81
2023/11/23 02:16:14;;;;;;;5.85;5.10;;;3.60;1.00;;;;;;5067755;28;20240;-80
2023/11/23 02:18:41;;;;;;;6.13;5.32;;;3.60;1.00;;;;;;5073919;28;20296;-81
2023/11/23 02:21:09;;;;;;;6.20;5.40;;;3.60;1.00;;;;;;5069756;28;20244;-78
2023/11/23 02:23:36;;;;;;;5.70;5.13;;;3.70;1.00;;;;;;5072889;28;20747;-81
2023/11/23 02:26:04;;;;;;;7.47;5.65;;;3.70;1.00;;;;;;5069395;28;20323;-79
2023/11/23 02:28:35;;;;;;;5.70;5.05;;;3.70;1.00;;;;;;5074439;28;20241;-80
2023/11/23 02:31:02;;;;;;;6.72;6.03;;;3.70;1.00;;;;;;5076184;28;20236;-78
2023/11/23 02:33:30;;;;;;;5.53;5.03;;;3.70;1.00;;;;;;5071796;28;20244;-80
2023/11/23 02:35:58;;;;;;;6.38;5.05;;;3.70;1.00;;;;;;5075010;28;20251;-79
2023/11/23 02:38:29;;;;;;;6.30;5.70;;;3.80;1.00;;;;;;5070620;28;20232;-76
2023/11/23 02:40:57;;;;;;;6.10;4.80;;;3.80;1.00;;;;;;5071594;28;20243;-80
2023/11/23 02:43:26;;;;;;;5.55;5.15;;;3.90;1.00;;;;;;5070236;28;21072;-81
2023/11/23 02:45:55;;;;;;;6.10;4.68;;;3.90;1.00;;;;;;5073107;28;20366;-80
2023/11/23 02:48:24;;;;;;;5.10;4.60;;;4.00;1.00;;;;;;5061384;28;20248;-76
2023/11/23 02:50:52;;;;;;;5.95;5.10;;;4.00;1.00;;;;;;5057912;28;21190;-81
2023/11/23 02:53:30;;;;;;;5.90;5.30;;;4.00;1.00;;;;;;5057008;28;20229;-80
2023/11/23 02:55:57;;;;;;;4.47;4.13;;;4.00;1.00;;;;;;5046938;28;20260;-77
2023/11/23 02:58:24;;;;;;;5.38;4.57;;;4.00;1.00;;;;;;5063952;28;20444;-81
2023/11/23 03:00:52;;;;;;;6.40;4.80;;;4.00;1.00;;;;;;5050568;28;20237;-80
2023/11/23 03:03:20;;;;;;;5.10;4.60;;;4.00;1.00;;;;;;5044707;28;20345;-76
2023/11/23 03:05:47;;;;;;;4.60;4.18;;;4.10;1.00;;;;;;5068254;28;20709;-74
2023/11/23 03:08:14;;;;;;;6.43;4.47;;;4.10;1.00;;;;;;5053571;28;20248;-72
2023/11/23 03:10:41;;;;;;;6.10;4.85;;;4.10;1.00;;;;;;5064191;28;20291;-73
2023/11/23 03:13:09;;;;;;;4.40;4.00;;;4.20;1.00;;;;;;5064845;28;21063;-73
2023/11/23 03:15:36;;;;;;;4.72;4.07;;;4.20;1.00;;;;;;5045093;28;20269;-71
2023/11/23 03:18:05;;;;;;;4.65;4.25;;;4.20;1.00;;;;;;5055199;28;20268;-71
2023/11/23 03:20:32;;;;;;;4.72;4.18;;;4.20;1.00;;;;;;5058561;28;20294;-70
2023/11/23 03:22:59;;;;;;;4.43;4.03;;;4.20;1.00;;;;;;5051848;28;20236;-71
2023/11/23 03:25:26;;;;;;;5.80;5.07;;;4.30;1.00;;;;;;5065599;28;20328;-72
2023/11/23 03:27:53;;;;;;;4.50;4.10;;;4.30;1.00;;;;;;5067211;28;20306;-72
2023/11/23 03:30:21;;;;;;;5.45;4.97;;;4.30;1.00;;;;;;5065525;28;20236;-71
2023/11/23 03:32:49;;;;;;;5.45;4.60;;;4.40;1.00;;;;;;5057441;28;20264;-71
2023/11/23 03:35:17;;;;;;;4.85;4.45;;;4.40;1.00;;;;;;5059078;28;21702;-72
2023/11/23 03:37:44;;;;;;;4.40;3.88;;;4.50;1.00;;;;;;5051467;28;20249;-72
2023/11/23 03:40:12;;;;;;;4.93;4.30;;;4.50;1.00;;;;;;5063124;28;20335;-75
2023/11/23 03:42:40;;;;;;;4.53;4.13;;;4.50;1.00;;;;;;5047780;28;20373;-71
2023/11/23 03:45:07;;;;;;;5.43;4.90;;;4.60;1.00;;;;;;5060181;28;20229;-73
2023/11/23 03:47:34;;;;;;;5.53;4.40;;;4.70;1.00;;;;;;5066730;28;20324;-71
2023/11/23 03:50:02;;;;;;;8.27;4.57;;;4.70;1.00;;;;;;5071730;28;20237;-71
2023/11/23 03:52:31;;;;;;;6.07;4.50;;;4.80;1.00;;;;;;5059249;28;20240;-71
2023/11/23 03:54:59;;;;;;;5.63;4.50;;;4.80;1.00;;;;;;5062742;28;21046;-71
2023/11/23 03:57:27;;;;;;;5.35;4.85;;;4.80;1.00;;;;;;5057869;28;20755;-70
2023/11/23 03:59:54;;;;;;;6.53;4.20;;;4.80;1.00;;;;;;5061233;28;20248;-71
2023/11/23 04:02:21;;;;;;;5.40;4.90;;;4.80;1.00;;;;;;5059830;28;20669;-71
2023/11/23 04:04:48;;;;;;;5.25;4.75;;;4.90;1.00;;;;;;5048549;28;20245;-70
2023/11/23 04:07:18;;;;;;;4.80;4.30;;;4.90;1.00;;;;;;5062514;28;20263;-71
2023/11/23 04:09:46;;;;;;;5.47;4.97;;;4.90;1.00;;;;;;5052259;28;20247;-71
2023/11/23 04:12:13;;;;;;;5.80;5.10;;;4.90;1.00;;;;;;5048758;28;20244;-72
2023/11/23 04:14:40;;;;;;;4.35;3.95;;;5.00;1.00;;;;;;5052303;28;20916;-72
2023/11/23 04:17:07;;;;;;;7.00;4.55;;;5.00;1.00;;;;;;5069937;28;20248;-72
2023/11/23 04:19:34;;;;;;;6.47;4.30;;;5.10;1.00;;;;;;5056117;28;20437;-72
2023/11/23 04:22:00;;;;;;;5.82;4.15;;;5.10;1.00;;;;;;5061878;28;20287;-72
2023/11/23 04:24:27;;;;;;;7.82;4.72;;;5.10;1.00;;;;;;5064714;28;20656;-71
2023/11/23 04:26:55;;;;;;;5.70;5.10;;;5.20;1.00;;;;;;5065759;28;21642;-73
2023/11/23 04:29:23;;;;;;;4.72;4.32;;;5.20;1.00;;;;;;5057563;28;20248;-71
2023/11/23 04:31:50;;;;;;;6.22;4.18;;;5.20;1.00;;;;;;5065300;28;20245;-71
2023/11/23 04:34:21;;;;;;;4.47;4.07;;;5.30;1.00;;;;;;5064207;28;20320;-72
2023/11/23 04:36:49;;;;;;;6.80;5.25;;;5.40;1.00;;;;;;5050012;28;21016;-72
2023/11/23 04:39:16;;;;;;;5.15;4.65;;;5.40;1.00;;;;;;5065789;28;20247;-72
2023/11/23 04:41:44;;;;;;;7.60;4.93;;;5.40;1.00;;;;;;5049660;28;20234;-72
2023/11/23 04:44:12;;;;;;;5.95;4.57;;;5.50;1.00;;;;;;5068283;28;20346;-76
2023/11/23 04:46:39;;;;;;;6.88;4.85;;;5.50;1.00;;;;;;5068515;28;20342;-73
2023/11/23 04:49:06;;;;;;;7.78;5.35;;;5.50;1.00;;;;;;5059346;28;20242;-73
2023/11/23 04:51:34;;;;;;;5.07;4.60;;;5.60;1.00;;;;;;5049729;28;20237;-72
2023/11/23 04:54:02;;;;;;;6.93;5.35;;;5.60;1.00;;;;;;5055733;28;20243;-75
2023/11/23 04:56:29;;;;;;;5.57;4.30;;;5.60;1.00;;;;;;5056692;28;20233;-71
2023/11/23 04:58:58;;;;;;;4.88;4.47;;;5.70;1.00;;;;;;5059142;28;20372;-72
2023/11/23 05:01:27;;;;;;;6.07;5.47;;;5.70;1.00;;;;;;5068288;28;20256;-70
2023/11/23 05:03:54;;;;;;;6.47;4.72;;;5.80;1.00;;;;;;5060099;28;21341;-73
2023/11/23 05:06:22;;;;;;;5.38;4.53;;;5.80;1.00;;;;;;5048241;28;20246;-73
2023/11/23 05:08:49;;;;;;;6.85;6.10;;;5.80;1.00;;;;;;5056324;28;20602;-78
2023/11/23 05:11:16;;;;;;;5.47;4.78;;;5.90;1.00;;;;;;5062619;28;20245;-71
2023/11/23 05:13:43;;;;;;;6.10;5.32;;;5.90;1.00;;;;;;5057025;28;20685;-72
2023/11/23 05:16:10;;;;;;;5.57;5.07;;;5.90;1.00;;;;;;5062654;28;20238;-72
2023/11/23 05:18:41;;;;;;;7.15;5.47;;;6.00;1.00;;;;;;5069387;28;20247;-71
2023/11/23 05:21:09;;;;;;;6.20;5.60;;;6.00;1.00;;;;;;5060955;28;20246;-70
2023/11/23 05:23:35;;;;;;;6.30;5.70;;;6.10;1.00;;;;;;5053387;28;20709;-72
2023/11/23 05:26:03;;;;;;;6.90;5.65;;;6.20;1.00;;;;;;5055201;28;20238;-75
2023/11/23 05:28:30;;;;;;;5.90;4.95;;;6.20;1.00;;;;;;5064168;28;20242;-74
2023/11/23 05:30:57;;;;;;;7.55;6.25;;;6.20;1.00;;;;;;5048755;28;21137;-75
2023/11/23 05:33:24;;;;;;;8.40;6.50;;;6.30;1.00;;;;;;5057280;28;20721;-75
2023/11/23 05:35:52;;;;;;;6.03;5.40;;;6.30;1.00;;;;;;5066219;28;20313;-75
2023/11/23 05:38:19;;;;;;;6.63;5.93;;;6.40;1.00;;;;;;5066277;28;20243;-74
2023/11/23 05:40:47;;;;;;;6.95;6.18;;;6.40;1.00;;;;;;5065956;28;20342;-74
2023/11/23 05:43:14;;;;;;;5.80;5.30;;;6.40;1.00;;;;;;5067393;28;20249;-74
2023/11/23 05:45:44;;;;;;;8.10;5.95;;;6.40;1.00;;;;;;5066400;28;20237;-74
2023/11/23 05:48:11;;;;;;;8.20;7.10;;;6.40;1.00;;;;;;5068775;28;20251;-73
2023/11/23 05:50:38;;;;;;;7.35;5.95;;;6.50;1.00;;;;;;5074911;28;20249;-74
2023/11/23 05:53:07;;;;;;;9.32;6.85;;;6.50;1.00;;;;;;5062559;28;20330;-74
2023/11/23 05:55:37;;;;;;;7.90;7.00;;;6.50;1.00;;;;;;5067499;28;20311;-75
2023/11/23 05:58:04;;;;;;;6.75;6.15;;;6.50;1.00;;;;;;5067725;28;20265;-75
2023/11/23 06:00:33;;;;;;;8.07;7.27;;;6.60;1.00;;;;;;5057214;28;20249;-76
2023/11/23 06:03:00;;;;;;;8.18;7.38;;;6.60;1.00;;;;;;5058797;28;20590;-72
2023/11/23 06:05:28;;;;;;;11.18;7.07;;;6.70;1.00;;;;;;5047485;28;20322;-73
2023/11/23 06:07:55;;;;;;;9.02;7.15;;;6.70;1.00;;;;;;5050842;28;20277;-73
2023/11/23 06:10:33;;;;;;;7.68;6.88;;;6.80;1.00;;;;;;5072101;28;21043;-75
2023/11/23 06:13:01;;;;;;;8.23;7.43;;;6.80;1.00;;;;;;5050298;28;20683;-74
2023/11/23 06:15:27;;;;;;;10.90;8.30;;;6.90;1.00;;;;;;5046698;28;20249;-75
2023/11/23 06:17:54;;;;;;;8.33;7.23;;;6.90;1.00;;;;;;5061568;28;20246;-73
2023/11/23 06:20:21;;;;;;;9.05;8.20;;;6.90;1.00;;;;;;5054276;28;20453;-74
2023/11/23 06:22:50;;;;;;;9.15;8.13;;;7.00;1.00;;;;;;5057640;28;20238;-74
2023/11/23 06:25:23;;;;;;;10.93;8.65;;;7.00;1.00;;;;;;5065821;28;20250;-76
2023/11/23 06:27:51;;;;;;;10.38;9.10;;;7.10;1.00;;;;;;5057491;28;20232;-73
2023/11/23 06:30:18;;;;;;;10.35;9.23;;;7.10;1.00;;;;;;5047663;28;20239;-74
2023/11/23 06:32:45;;;;;;;10.88;9.77;;;7.10;1.00;;;;;;5080266;28;20242;-75
2023/11/23 06:35:12;;;;;;;10.52;9.20;;;7.10;1.00;;;;;;5049033;28;20242;-75
2023/11/23 06:37:41;;;;;;;9.50;8.60;;;7.10;1.00;;;;;;5054301;28;20808;-75
2023/11/23 06:40:10;;;;;;;9.18;8.15;;;7.10;1.00;;;;;;5051234;28;20236;-75
2023/11/23 06:42:39;;;;;;;10.70;8.55;;;7.20;1.00;;;;;;5050710;28;20914;-74
2023/11/23 06:45:07;;;;;;;13.05;10.32;;;7.20;1.00;;;;;;5066871;28;20294;-75
2023/11/23 06:47:34;;;;;;;9.85;8.77;;;7.20;1.00;;;;;;5069566;28;20245;-74
2023/11/23 06:50:02;;;;;;;13.48;10.55;;;7.20;1.00;;;;;;5069393;28;20266;-75
2023/11/23 06:52:29;;;;;;;11.52;10.00;;;7.20;1.00;;;;;;5071295;28;20713;-74
2023/11/23 06:54:57;;;;;;;10.10;9.07;;;7.20;1.00;;;;;;5067357;28;20242;-76
2023/11/23 06:57:24;;;;;;;9.88;8.98;;;7.20;1.00;;;;;;5067660;28;20249;-73
2023/11/23 06:59:52;;;;;;;13.57;9.85;;;7.20;1.00;;;;;;5067838;28;20340;-75
2023/11/23 07:02:21;;;;;;;10.55;9.50;;;7.20;1.00;;;;;;5067938;28;20244;-76
2023/11/23 07:04:49;;;;;;;10.73;9.68;;;7.20;1.00;;;;;;5066970;28;20360;-74
2023/11/23 07:07:17;;;;;;;12.30;9.50;;;7.10;1.00;;;;;;5066715;28;20246;-73
2023/11/23 07:09:46;;;;;;;10.10;9.10;;;7.10;1.00;;;;;;5065436;28;20716;-74
2023/11/23 07:12:14;;;;;;;12.43;9.38;;;7.10;1.00;;;;;;5050244;28;20239;-74
2023/11/23 07:14:44;;;;;;;10.30;9.20;;;7.00;1.00;;;;;;5060081;28;20315;-74
2023/11/23 07:17:12;;;;;;;9.68;8.75;;;7.00;1.00;;;;;;5062916;28;20237;-74
2023/11/23 07:19:39;;;;;;;10.73;9.50;;;7.00;1.00;;;;;;5073333;28;20268;-74
2023/11/23 07:22:07;;;;;;;10.55;9.45;;;7.00;1.00;;;;;;5068045;28;20333;-74
2023/11/23 07:24:35;;;;;;;18.60;14.70;;;6.90;1.00;;;;;;5066905;28;20237;-74
2023/11/23 07:27:02;;;;;;;11.43;9.82;;;6.90;1.00;;;;;;5068693;28;20922;-75
2023/11/23 07:29:29;;;;;;;10.43;9.40;;;6.90;1.00;;;;;;5065856;28;20236;-75
2023/11/23 07:31:56;;;;;;;10.43;8.90;;;6.90;1.00;;;;;;5068884;28;21062;-75
2023/11/23 07:34:25;;;;;;;10.57;9.50;;;6.90;1.00;;;;;;5061239;28;21213;-74
2023/11/23 07:36:55;;;;;;;11.95;9.95;;;6.90;1.00;;;;;;5066163;28;20244;-75
2023/11/23 07:39:22;;;;;;;9.88;8.93;;;7.00;1.00;;;;;;5067197;28;20313;-75
2023/11/23 07:41:49;;;;;;;12.50;10.03;;;7.00;1.00;;;;;;5067071;28;20257;-80
2023/11/23 07:44:16;;;;;;;10.85;9.75;;;7.10;1.00;;;;;;5065421;28;21089;-80
2023/11/23 07:46:46;;;;;;;10.80;9.70;;;7.20;1.00;;;;;;5067536;28;20240;-79
2023/11/23 07:49:14;;;;;;;11.97;10.30;;;7.20;1.00;;;;;;5057207;28;20239;-80
2023/11/23 07:51:43;;;;;;;11.63;10.27;;;7.20;1.00;;;;;;5062917;28;20456;-76
2023/11/23 07:54:10;;;;;;;10.15;9.15;;;7.20;1.00;;;;;;5059113;28;20634;-81
2023/11/23 07:56:37;;;;;;;10.05;8.70;;;7.30;1.00;;;;;;5062255;28;20732;-81
2023/11/23 07:59:04;;;;;;;10.27;9.23;;;7.20;1.00;;;;;;5072654;28;20281;-80
2023/11/23 08:01:31;;;;;;;10.55;9.23;;;7.30;1.00;;;;;;5072674;28;20234;-82
2023/11/23 08:04:00;;;;;;;9.90;8.93;;;7.20;1.00;;;;;;5076302;28;20287;-77
2023/11/23 08:06:27;;;;;;;10.18;9.18;;;7.20;1.00;;;;;;5065702;28;20243;-74
2023/11/23 08:08:56;;;;;;;13.43;10.20;;;7.20;1.00;;;;;;5067437;28;20362;-81
2023/11/23 08:11:23;;;;;;;11.07;9.93;;;7.20;1.00;;;;;;5051887;28;20219;-81
2023/11/23 08:13:50;;;;;;;10.90;9.70;;;7.20;1.00;;;;;;5072380;28;20463;-82
2023/11/23 08:16:18;;;;;;;10.65;9.30;;;7.20;1.00;;;;;;5075125;28;20484;-80
2023/11/23 08:18:46;;;;;;;11.27;10.18;;;7.20;1.00;;;;;;5075749;28;20240;-82
2023/11/23 08:21:15;;;;;;;9.90;9.00;;;7.20;1.00;;;;;;5072515;28;20236;-74
2023/11/23 08:23:42;;;;;;;10.27;9.27;;;7.30;1.00;;;;;;5067965;28;20500;-79
2023/11/23 08:26:11;;;;;;;11.35;10.07;;;7.30;1.00;;;;;;5074312;28;20553;-80
2023/11/23 08:28:40;;;;;;;11.97;10.47;;;7.30;1.00;;;;;;5071884;28;20239;-77
2023/11/23 08:31:08;;;;;;;10.68;9.57;;;7.40;1.00;;;;;;5071262;28;20474;-77
2023/11/23 08:33:35;;;;;;;10.80;9.70;;;7.40;1.00;;;;;;5063706;28;21824;-82
2023/11/23 08:36:02;;;;;;;10.80;9.80;;;7.40;1.00;;;;;;5055734;28;20447;-78
2023/11/23 08:38:32;;;;;;;10.30;9.30;;;7.40;1.00;;;;;;5055485;28;20268;-82
2023/11/23 08:41:00;;;;;;;11.37;10.17;;;7.40;1.00;;;;;;5057945;28;20434;-78
2023/11/23 08:43:29;;;;;;;11.32;10.20;;;7.40;1.00;;;;;;5073719;28;20472;-81
2023/11/23 08:45:56;;;;;;;14.50;10.10;;;7.50;1.00;;;;;;5074035;28;20236;-77
2023/11/23 08:48:23;;;;;;;11.47;10.33;;;7.40;1.00;;;;;;5062563;28;20241;-80
2023/11/23 08:50:50;;;;;;;10.80;9.80;;;7.50;1.00;;;;;;5071163;28;20456;-80
2023/11/23 08:53:17;;;;;;;9.90;9.00;;;7.50;1.00;;;;;;5060351;28;20491;-70
2023/11/23 08:55:48;;;;;;;10.98;9.98;;;7.50;1.00;;;;;;5071181;28;20938;-73
2023/11/23 08:58:15;;;;;;;11.43;10.07;;;7.50;1.00;;;;;;5068261;28;22933;-70
2023/11/23 09:00:43;;;;;;;11.80;10.70;;;7.60;1.00;;;;;;5068634;28;20260;-70
2023/11/23 09:03:11;;;;;;;11.50;9.30;;;7.70;1.00;;;;;;5071551;28;20582;-74
2023/11/23 09:05:39;;;;;;;10.68;9.50;;;7.80;1.00;;;;;;5057481;28;21197;-71
2023/11/23 09:08:07;;;;;;;11.17;10.10;;;7.90;1.00;;;;;;5068904;28;20228;-70
2023/11/23 09:10:34;;;;;;;11.53;9.80;;;7.90;1.00;;;;;;5067948;28;20537;-70
2023/11/23 09:13:02;;;;;;;9.93;8.87;;;7.90;1.00;;;;;;5065073;28;20482;-78
2023/11/23 09:15:29;;;;;;;10.93;8.97;;;8.00;1.00;;;;;;5077519;28;20501;-73
2023/11/23 09:17:58;;;;;;;11.33;9.37;;;8.00;1.00;;;;;;5072118;28;20491;-70
2023/11/23 09:20:26;;;;;;;10.10;9.10;;;8.10;1.00;;;;;;5067040;28;20513;-74
2023/11/23 09:22:54;;;;;;;13.43;9.97;;;8.10;1.00;;;;;;5072255;28;20471;-69
2023/11/23 09:25:21;;;;;;;9.10;8.10;;;8.20;1.00;;;;;;5073208;28;20973;-70
2023/11/23 09:27:49;;;;;;;10.10;9.20;;;8.20;1.00;;;;;;5069027;28;20465;-70
2023/11/23 09:30:17;;;;;;;11.67;9.80;;;8.20;1.00;;;;;;5062294;28;20522;-70
2023/11/23 09:32:44;;;;;;;10.37;9.37;;;8.30;1.00;;;;;;5051425;28;20479;-70
2023/11/23 09:35:13;;;;;;;9.17;8.27;;;8.20;1.00;;;;;;5069425;28;20546;-70
2023/11/23 09:37:40;;;;;;;11.70;9.33;;;8.30;1.00;;;;;;5068911;28;20466;-70
2023/11/23 09:40:11;;;;;;;12.30;9.57;;;8.30;1.00;;;;;;5070270;28;20455;-70
2023/11/23 09:42:38;;;;;;;10.40;9.40;;;8.30;1.00;;;;;;5069095;28;21040;-70
2023/11/23 09:45:08;;;;;;;10.63;9.52;;;8.30;1.00;;;;;;5059262;28;20470;-70
2023/11/23 09:47:36;;;;;;;9.83;8.83;;;8.30;1.00;;;;;;5049108;28;20261;-69
2023/11/23 09:50:03;;;;;;;9.77;8.77;;;8.30;1.00;;;;;;5052525;28;20456;-70
2023/11/23 09:52:37;;;;;;;11.60;9.80;;;8.30;1.00;;;;;;5048901;28;20971;-70
2023/11/23 09:55:08;;;;;;;10.43;9.43;;;8.30;1.00;;;;;;5064809;28;20452;-69
2023/11/23 09:57:36;;;;;;;9.60;8.53;;;8.30;1.00;;;;;;5069998;28;20451;-70
2023/11/23 10:00:08;;;;;;;9.57;7.93;;;8.30;1.00;;;;;;5069530;28;20475;-71
2023/11/23 10:02:36;;;;;;;9.60;8.70;;;8.40;1.00;;;;;;5071179;28;20470;-81
2023/11/23 10:05:03;;;;;;;9.80;8.90;;;8.30;1.00;;;;;;5067153;28;20992;-80
2023/11/23 10:07:33;;;;;;;9.17;8.30;;;8.30;1.00;;;;;;5062339;28;20430;-79
2023/11/23 10:10:02;;;;;;;9.70;8.80;;;8.40;1.00;;;;;;5072435;28;20462;-82
2023/11/23 10:12:29;;;;;;;10.57;9.10;;;8.40;1.00;;;;;;5071218;28;22111;-78
2023/11/23 10:14:56;;;;;;;9.80;8.80;;;8.40;1.00;;;;;;5055560;28;20463;-76
2023/11/23 10:17:23;;;;;;;9.23;8.33;;;8.40;1.00;;;;;;5052075;28;20499;-81
2023/11/23 10:19:53;;;;;;;9.80;8.83;;;8.40;1.00;;;;;;5051360;28;20471;-74
2023/11/23 10:22:22;;;;;;;10.03;8.90;;;8.40;1.00;;;;;;5057065;28;20488;-80
2023/11/23 10:24:51;;;;;;;9.23;8.30;;;8.40;1.00;;;;;;5046598;28;20959;-77
2023/11/23 10:27:18;;;;;;;9.33;8.43;;;8.40;1.00;;;;;;5064412;28;20523;-81
2023/11/23 10:29:47;;;;;;;8.50;7.70;;;8.40;1.00;;;;;;5069004;28;22057;-82
2023/11/23 10:32:16;;;;;;;9.40;8.33;;;8.40;1.00;;;;;;5066079;28;20459;-78
2023/11/23 10:34:46;;;;;;;10.20;9.10;;;8.40;1.00;;;;;;5056764;28;20448;-79
2023/11/23 10:37:16;;;;;;;9.30;8.50;;;8.40;1.00;;;;;;5066334;28;20463;-80
2023/11/23 10:39:48;;;;;;;9.37;8.23;;;8.50;1.00;;;;;;5070857;28;21235;-76
2023/11/23 10:42:19;;;;;;;10.40;9.40;;;8.50;1.00;;;;;;5052163;28;21057;-78
2023/11/23 10:44:46;;;;;;;10.50;9.40;;;8.50;1.00;;;;;;5067221;28;20529;-80
2023/11/23 10:47:15;;;;;;;9.23;8.23;;;8.50;1.00;;;;;;5054468;28;20436;-79
2023/11/23 10:49:44;;;;;;;11.97;9.10;;;8.50;1.00;;;;;;5059539;28;20497;-80
2023/11/23 10:52:15;;;;;;;9.40;8.37;;;8.60;1.00;;;;;;5071787;28;20983;-77
2023/11/23 10:54:42;;;;;;;10.03;9.13;;;8.60;1.00;;;;;;5071238;28;21307;-81
2023/11/23 10:57:11;;;;;;;9.73;8.83;;;8.50;1.00;;;;;;5069779;28;20548;-80
2023/11/23 10:59:42;;;;;;;9.93;8.97;;;8.70;1.00;;;;;;5072390;28;20517;-73
2023/11/23 11:02:10;;;;;;;9.33;8.37;;;8.70;1.00;;;;;;5052657;28;22456;-76
2023/11/23 11:04:38;;;;;;;10.10;9.10;;;8.70;1.00;;;;;;5079062;28;20447;-79
2023/11/23 11:07:10;;;;;;;9.57;8.67;;;8.70;1.00;;;;;;5054624;28;20596;-81
2023/11/23 11:09:39;;;;;;;9.40;8.50;;;8.70;1.00;;;;;;5055978;28;20862;-81
2023/11/23 11:12:12;;;;;;;15.53;10.63;;;8.60;1.00;;;;;;5065213;28;20481;-74
2023/11/23 11:14:52;;;;;;;10.50;9.23;;;8.70;1.00;;;;;;5066581;28;21321;-72
2023/11/23 11:17:19;;;;;;;10.90;9.20;;;8.70;1.00;;;;;;5068054;28;20464;-73
2023/11/23 11:19:49;;;;;;;9.30;8.40;;;8.70;1.00;;;;;;5067671;28;20483;-73
2023/11/23 11:22:17;;;;;;;10.47;9.40;;;8.70;1.00;;;;;;5064804;28;20537;-73
2023/11/23 11:24:45;;;;;;;11.80;9.47;;;8.70;1.00;;;;;;5063615;28;20466;-75
2023/11/23 11:27:13;;;;;;;9.50;8.60;;;8.70;1.00;;;;;;5066464;28;20460;-74
2023/11/23 11:29:50;;;;;;;13.33;10.20;;;8.70;1.00;;;;;;5068002;28;20459;-74
2023/11/23 11:32:18;;;;;;;9.97;8.90;;;8.70;1.00;;;;;;5062107;28;20483;-72
2023/11/23 11:34:45;;;;;;;10.27;9.03;;;8.80;1.00;;;;;;5052339;28;20538;-72
2023/11/23 11:37:16;;;;;;;12.20;9.90;;;8.80;1.00;;;;;;5067088;28;20464;-73
2023/11/23 11:39:43;;;;;;;9.63;7.50;;;8.80;1.00;;;;;;5066056;28;20486;-72
2023/11/23 11:42:10;;;;;;;10.00;8.57;;;8.80;1.00;;;;;;5066577;28;20502;-73
2023/11/23 11:44:46;;;;;;;10.43;9.37;;;8.80;1.00;;;;;;5066152;28;21840;-76
2023/11/23 11:47:13;;;;;;;9.20;8.30;;;8.80;1.00;;;;;;5067522;28;20592;-74
2023/11/23 11:49:40;;;;;;;10.80;9.70;;;8.80;1.00;;;;;;5065970;28;21389;-73
2023/11/23 11:52:09;;;;;;;9.83;8.57;;;8.80;1.00;;;;;;5067105;28;20533;-74
2023/11/23 11:54:38;;;;;;;9.13;8.23;;;8.80;1.00;;;;;;5065335;28;20478;-74
2023/11/23 11:57:06;;;;;;;10.77;9.77;;;8.80;1.00;;;;;;5065028;28;20494;-74
2023/11/23 11:59:35;;;;;;;9.77;8.67;;;8.90;1.00;;;;;;5058487;28;20451;-73
2023/11/23 12:02:05;;;;;;;7.93;7.03;;;8.90;1.00;;;;;;5058049;28;21026;-73
2023/11/23 12:04:35;;;;;;;10.13;9.23;;;9.00;1.00;;;;;;5059399;28;20459;-73
2023/11/23 12:07:02;;;;;;;8.93;8.00;;;9.00;1.00;;;;;;5062726;28;20982;-74
2023/11/23 12:09:30;;;;;;;8.70;7.90;;;9.10;1.00;;;;;;5048709;28;21267;-74
2023/11/23 12:12:05;;;;;;;10.70;7.63;;;9.10;1.00;;;;;;5047074;28;20468;-74
2023/11/23 12:14:33;;;;;;;8.10;7.40;;;9.10;1.00;;;;;;5056295;28;20451;-76
2023/11/23 12:17:11;;;;;;;9.00;8.10;;;9.10;1.00;;;;;;5068304;28;20950;-73
2023/11/23 12:19:39;;;;;;;8.53;7.67;;;9.10;1.00;;;;;;5068370;28;20510;-74
2023/11/23 12:22:06;;;;;;;9.50;7.90;;;9.10;1.00;;;;;;5059779;28;20475;-80
2023/11/23 12:24:33;;;;;;;9.53;7.70;;;9.20;1.00;;;;;;5065328;28;20462;-79
2023/11/23 12:27:00;;;;;;;8.40;7.40;;;9.20;1.00;;;;;;5063451;28;20496;-79
2023/11/23 12:29:30;;;;;;;8.90;8.00;;;9.20;1.00;;;;;;5062997;28;20481;-81
2023/11/23 12:32:01;;;;;;;10.93;8.70;;;9.30;1.00;;;;;;5069855;28;20442;-78
2023/11/23 12:34:30;;;;;;;8.07;7.27;;;9.30;1.00;;;;;;5070281;28;20439;-74
2023/11/23 12:36:58;;;;;;;7.70;6.93;;;9.40;1.00;;;;;;5073053;28;21362;-79
2023/11/23 12:39:28;;;;;;;6.97;6.37;;;9.50;1.00;;;;;;5069627;28;20451;-82
2023/11/23 12:41:55;;;;;;;7.13;6.53;;;9.50;1.00;;;;;;5075433;28;20459;-81
2023/11/23 12:44:23;;;;;;;7.83;7.03;;;9.60;1.00;;;;;;5065746;28;20447;-74
2023/11/23 12:46:51;;;;;;;7.07;6.37;;;9.60;1.00;;;;;;5075324;28;20466;-83
2023/11/23 12:49:19;;;;;;;6.67;5.93;;;9.70;1.00;;;;;;5062573;28;20552;-81
2023/11/23 12:51:48;;;;;;;9.87;8.87;;;9.80;1.00;;;;;;5072054;28;20486;-79
2023/11/23 12:54:15;;;;;;;7.03;6.33;;;9.80;1.00;;;;;;5064569;28;20518;-82
2023/11/23 12:56:42;;;;;;;6.57;5.97;;;9.80;1.00;;;;;;5067798;28;21303;-81
2023/11/23 12:59:13;;;;;;;6.63;6.03;;;9.90;1.00;;;;;;5051927;28;20460;-80
2023/11/23 13:01:40;;;;;;;6.10;5.60;;;9.90;1.00;;;;;;5072858;28;21033;-78
2023/11/23 13:04:07;;;;;;;6.83;6.20;;;10.00;1.00;;;;;;5074039;28;20487;-75
2023/11/23 13:06:34;;;;;;;5.93;5.43;;;10.10;1.00;;;;;;5071047;28;21353;-80